Time;durP1;ratioP1;P1;durP2;ratioP2;P2;SDS_P1;SDS_P2;PMS_P1;PMS_P2;Temp;Humidity;BMP_temperature;BMP_pressure;BME280_temperature;BME280_humidity;BME280_pressure;Samples;Min_cycle;Max_cycle;Signal;HPM_P1;HPM_P2
2022/10/26 00:00:43;;;;;;;1999.90;999.90;;;;;;;10.99;100.00;94288.94;5115621;28;20254;-59
2022/10/26 00:03:09;;;;;;;1999.90;999.90;;;;;;;10.94;100.00;94305.88;5115569;28;20206;-61
2022/10/26 00:05:34;;;;;;;1999.90;999.90;;;;;;;10.92;100.00;94317.22;5115333;28;20276;-61
2022/10/26 00:08:00;;;;;;;1999.90;999.90;;;;;;;10.95;100.00;94323.78;5116162;28;20176;-61
2022/10/26 00:10:26;;;;;;;1999.90;999.90;;;;;;;11.04;100.00;94323.94;5114890;28;20202;-62
2022/10/26 00:12:51;;;;;;;1999.90;999.90;;;;;;;11.04;100.00;94337.63;5115834;28;20180;-62
2022/10/26 00:15:18;;;;;;;1999.90;999.90;;;;;;;11.11;100.00;94351.09;5115517;28;20172;-62
2022/10/26 00:17:44;;;;;;;1999.90;999.90;;;;;;;11.15;100.00;94374.34;5115290;28;20357;-58
2022/10/26 00:20:10;;;;;;;1999.90;999.90;;;;;;;11.19;100.00;94401.59;5115444;28;20193;-62
2022/10/26 00:22:36;;;;;;;1999.90;999.90;;;;;;;11.24;100.00;94417.47;5114839;28;20349;-62
2022/10/26 00:25:02;;;;;;;1999.90;999.90;;;;;;;11.23;100.00;94446.00;5114943;28;20178;-61
2022/10/26 00:27:27;;;;;;;1999.90;999.90;;;;;;;11.22;100.00;94450.69;5114899;28;20176;-62
2022/10/26 00:29:52;;;;;;;1999.90;999.90;;;;;;;11.21;100.00;94464.78;5114935;28;20230;-61
2022/10/26 00:32:17;;;;;;;1999.90;999.90;;;;;;;11.23;100.00;94484.25;5114609;28;20183;-62
2022/10/26 00:34:43;;;;;;;1999.90;999.90;;;;;;;11.24;100.00;94493.97;5115530;28;20226;-63
2022/10/26 00:37:08;;;;;;;1999.90;999.90;;;;;;;11.24;100.00;94493.97;5114852;28;20260;-61
2022/10/26 00:39:34;;;;;;;1999.90;999.90;;;;;;;11.25;100.00;94498.28;5114613;28;20173;-58
2022/10/26 00:41:59;;;;;;;1999.90;999.90;;;;;;;11.26;100.00;94511.47;5114802;28;20180;-58
2022/10/26 00:44:46;;;;;;;1999.90;999.90;;;;;;;11.31;100.00;94500.06;5115007;28;20201;-58
2022/10/26 00:47:24;;;;;;;1999.90;999.90;;;;;;;11.27;100.00;94515.78;5114388;28;20235;-58
2022/10/26 00:49:53;;;;;;;1999.90;999.90;;;;;;;11.21;100.00;94516.69;5114461;28;20182;-58
2022/10/26 00:52:20;;;;;;;1999.90;999.90;;;;;;;11.26;100.00;94516.19;5114368;28;20205;-59
2022/10/26 00:54:45;;;;;;;1999.90;999.90;;;;;;;11.32;100.00;94514.47;5114166;28;20271;-61
2022/10/26 00:57:13;;;;;;;1999.90;999.90;;;;;;;11.38;100.00;94518.22;5114813;28;20213;-66
2022/10/26 00:59:40;;;;;;;1999.90;999.90;;;;;;;11.45;100.00;94523.50;5114057;28;20298;-68
2022/10/26 01:02:05;;;;;;;1999.90;999.90;;;;;;;11.48;100.00;94514.47;5114156;28;20209;-67
2022/10/26 01:04:32;;;;;;;1999.90;999.90;;;;;;;11.52;100.00;94518.66;5113709;28;20209;-68
2022/10/26 01:06:59;;;;;;;1999.90;999.90;;;;;;;11.54;100.00;94520.97;5114070;28;20190;-68
2022/10/26 01:09:25;;;;;;;1999.90;999.90;;;;;;;11.60;100.00;94532.88;5114864;28;20174;-68
2022/10/26 01:11:51;;;;;;;1999.90;999.90;;;;;;;11.62;100.00;94530.53;5114363;28;20178;-68
2022/10/26 01:14:18;;;;;;;1999.90;999.90;;;;;;;11.57;100.00;94550.16;5113914;28;20177;-59
2022/10/26 01:16:59;;;;;;;1999.90;999.90;;;;;;;11.54;100.00;94561.97;5114710;28;20225;-61
2022/10/26 01:19:58;;;;;;;1999.90;999.90;;;;;;;11.57;100.00;94572.03;5113928;28;20184;-64
2022/10/26 01:22:27;;;;;;;1999.90;999.90;;;;;;;11.63;100.00;94589.50;5113825;28;20674;-65
2022/10/26 01:25:09;;;;;;;1999.90;999.90;;;;;;;11.64;100.00;94588.28;5114546;28;20261;-62
2022/10/26 01:27:38;;;;;;;1999.90;999.90;;;;;;;11.60;100.00;94601.25;5113888;28;20210;-63
2022/10/26 01:30:18;;;;;;;1999.90;999.90;;;;;;;11.50;100.00;94596.81;5115124;28;20185;-69
2022/10/26 01:33:03;;;;;;;1999.90;999.90;;;;;;;11.61;100.00;94597.34;5114260;28;20172;-58
2022/10/26 01:35:37;;;;;;;1999.90;999.90;;;;;;;11.67;100.00;94612.03;5113986;28;20175;-58
2022/10/26 01:38:24;;;;;;;1999.90;999.90;;;;;;;11.70;100.00;94620.19;5114560;28;20176;-58
2022/10/26 01:41:01;;;;;;;1999.90;999.90;;;;;;;11.73;100.00;94624.75;5113806;28;20178;-58
2022/10/26 01:43:34;;;;;;;1999.90;999.90;;;;;;;11.75;100.00;94629.81;5113799;28;20292;-58
2022/10/26 01:46:02;;;;;;;1999.90;999.90;;;;;;;11.75;100.00;94632.53;5113910;28;20182;-58
2022/10/26 01:48:28;;;;;;;1999.90;999.90;;;;;;;11.77;100.00;94625.44;5113883;28;20216;-58
2022/10/26 01:50:56;;;;;;;1999.90;999.90;;;;;;;11.73;100.00;94624.00;5113867;28;20200;-60
2022/10/26 01:53:24;;;;;;;1999.90;999.90;;;;;;;11.69;100.00;94637.75;5113898;28;20177;-67
2022/10/26 01:55:52;;;;;;;1999.90;999.90;;;;;;;11.59;100.00;94622.38;5113821;28;20181;-67
2022/10/26 01:58:49;;;;;;;1999.90;999.90;;;;;;;11.55;100.00;94615.44;5113494;28;20175;-67
2022/10/26 02:02:05;;;;;;;1999.90;999.90;;;;;;;11.53;100.00;94602.19;5114314;28;20182;-69
2022/10/26 02:04:55;;;;;;;1999.90;999.90;;;;;;;11.64;100.00;94591.78;5055211;28;20230;-67
2022/10/26 02:07:38;;;;;;;1999.90;999.90;;;;;;;11.68;100.00;94569.81;5059713;28;20182;-61
2022/10/26 02:10:07;;;;;;;1999.90;999.90;;;;;;;11.70;100.00;94567.44;5102374;28;20277;-58
2022/10/26 02:12:49;;;;;;;1999.90;999.90;;;;;;;11.70;100.00;94584.63;5117508;28;20173;-59
2022/10/26 02:15:35;;;;;;;1999.90;999.90;;;;;;;11.76;100.00;94582.88;5118155;28;20210;-60
2022/10/26 02:18:19;;;;;;;1999.90;999.90;;;;;;;11.79;100.00;94570.31;5117490;28;20236;-59
2022/10/26 02:20:50;;;;;;;1999.90;999.90;;;;;;;11.84;100.00;94578.00;5117979;28;20206;-59
2022/10/26 02:23:17;;;;;;;1999.90;999.90;;;;;;;11.83;100.00;94576.44;5117146;28;20229;-60
2022/10/26 02:25:51;;;;;;;1999.90;999.90;;;;;;;11.84;100.00;94586.97;5117307;28;20206;-61
2022/10/26 02:28:21;;;;;;;1999.90;999.90;;;;;;;11.88;100.00;94587.63;5117685;28;20169;-60
2022/10/26 02:30:49;;;;;;;1999.90;999.90;;;;;;;11.91;100.00;94602.44;5117702;28;20173;-59
2022/10/26 02:33:17;;;;;;;1999.90;999.90;;;;;;;11.93;100.00;94592.59;5117686;28;20221;-61
2022/10/26 02:35:49;;;;;;;1999.90;999.90;;;;;;;11.93;100.00;94589.09;5116524;28;20187;-58
2022/10/26 02:38:18;;;;;;;1999.90;999.90;;;;;;;11.92;100.00;94609.44;5117640;28;20168;-59
2022/10/26 02:40:47;;;;;;;1999.90;999.90;;;;;;;11.93;100.00;94605.50;5117204;28;20180;-58
2022/10/26 02:43:20;;;;;;;1999.90;999.90;;;;;;;11.95;100.00;94600.38;5116861;28;20203;-67
2022/10/26 02:45:51;;;;;;;1999.90;999.90;;;;;;;11.95;100.00;94616.81;5117130;28;20266;-63
2022/10/26 02:48:17;;;;;;;1999.90;999.90;;;;;;;11.96;100.00;94607.38;5117504;28;20173;-59
2022/10/26 02:50:59;;;;;;;1999.90;999.90;;;;;;;11.94;100.00;94615.25;5116975;28;20172;-59
2022/10/26 02:53:31;;;;;;;1999.90;999.90;;;;;;;11.94;100.00;94615.25;5117013;28;20182;-59
2022/10/26 02:56:01;;;;;;;1999.90;999.90;;;;;;;11.88;100.00;94606.03;5116532;28;20278;-59
2022/10/26 02:58:31;;;;;;;1999.90;999.90;;;;;;;11.93;100.00;94597.28;5117194;28;20178;-60
2022/10/26 03:00:57;;;;;;;1999.90;999.90;;;;;;;11.89;100.00;94585.69;5116693;28;20180;-59
2022/10/26 03:03:22;;;;;;;1999.90;999.90;;;;;;;11.83;100.00;94566.28;5117018;28;20201;-59
2022/10/26 03:05:48;;;;;;;1999.90;999.90;;;;;;;11.83;100.00;94565.50;5116260;28;20175;-59
2022/10/26 03:08:13;;;;;;;1999.90;999.90;;;;;;;11.80;100.00;94571.88;5116160;28;20261;-58
2022/10/26 03:10:42;;;;;;;1999.90;999.90;;;;;;;11.87;100.00;94568.94;5116517;28;20172;-58
2022/10/26 03:13:10;;;;;;;1999.90;999.90;;;;;;;11.90;100.00;94577.03;5116817;28;20176;-59
2022/10/26 03:15:35;;;;;;;1999.90;999.90;;;;;;;11.91;100.00;94575.09;5116367;28;20228;-58
2022/10/26 03:18:01;;;;;;;1999.90;999.90;;;;;;;11.96;100.00;94547.19;5116351;28;20176;-59
2022/10/26 03:20:26;;;;;;;1999.90;999.90;;;;;;;11.92;100.00;94527.38;5116433;28;20187;-60
2022/10/26 03:22:52;;;;;;;1999.90;999.90;;;;;;;11.84;100.00;94539.72;5116419;28;20295;-60
2022/10/26 03:25:17;;;;;;;1999.90;999.90;;;;;;;11.79;100.00;94526.53;5115972;28;20196;-62
2022/10/26 03:27:43;;;;;;;1999.90;999.90;;;;;;;11.77;100.00;94507.06;5116408;28;20169;-61
2022/10/26 03:30:09;;;;;;;1999.90;999.90;;;;;;;11.75;100.00;94493.81;5116705;28;20174;-62
2022/10/26 03:32:34;;;;;;;1999.90;999.90;;;;;;;11.74;100.00;94475.88;5116117;28;20264;-62
2022/10/26 03:34:59;;;;;;;1999.90;999.90;;;;;;;11.80;100.00;94474.13;5116465;28;20173;-61
2022/10/26 03:37:25;;;;;;;1999.90;999.90;;;;;;;11.81;100.00;94458.50;5115562;28;20178;-61
2022/10/26 03:39:50;;;;;;;1999.90;999.90;;;;;;;11.85;100.00;94443.53;5115876;28;20204;-62
2022/10/26 03:42:16;;;;;;;1999.90;999.90;;;;;;;11.86;100.00;94450.53;5115705;28;20173;-68
2022/10/26 03:44:41;;;;;;;1999.90;999.90;;;;;;;11.93;100.00;94435.88;5116290;28;20197;-67
2022/10/26 03:47:07;;;;;;;1999.90;999.90;;;;;;;11.91;100.00;94413.66;5116251;28;20164;-67
2022/10/26 03:49:32;;;;;;;1999.90;999.90;;;;;;;11.93;100.00;94414.75;5116446;28;20169;-66
2022/10/26 03:51:57;;;;;;;1999.90;999.90;;;;;;;11.96;100.00;94411.16;5115745;28;20173;-66
2022/10/26 03:54:23;;;;;;;1999.90;999.90;;;;;;;12.01;100.00;94401.63;5115657;28;20210;-68
2022/10/26 03:56:49;;;;;;;1999.90;999.90;;;;;;;12.05;100.00;94397.59;5115745;28;20179;-59
2022/10/26 03:59:14;;;;;;;1999.90;999.90;;;;;;;12.10;100.00;94399.03;5115446;28;20170;-60
2022/10/26 04:01:39;;;;;;;1999.90;999.90;;;;;;;12.14;100.00;94394.22;5115451;28;20168;-61
2022/10/26 04:04:05;;;;;;;1999.90;999.90;;;;;;;12.17;100.00;94387.88;5115176;28;20266;-61
2022/10/26 04:06:30;;;;;;;1999.90;999.90;;;;;;;12.20;100.00;94392.47;5115270;28;20174;-62
2022/10/26 04:09:01;;;;;;;1999.90;999.90;;;;;;;12.24;100.00;94393.13;5115274;28;20242;-62
2022/10/26 04:11:27;;;;;;;1999.90;999.90;;;;;;;12.28;100.00;94404.72;5115844;28;20264;-64
2022/10/26 04:13:54;;;;;;;1999.90;999.90;;;;;;;12.30;100.00;94391.34;5115495;28;20169;-62
2022/10/26 04:16:20;;;;;;;1999.90;999.90;;;;;;;12.30;100.00;94405.03;5114762;28;20174;-65
2022/10/26 04:18:45;;;;;;;1999.90;999.90;;;;;;;12.28;100.00;94410.19;5115074;28;20179;-62
2022/10/26 04:21:10;;;;;;;1999.90;999.90;;;;;;;12.27;100.00;94419.59;5114975;28;20270;-62
2022/10/26 04:23:36;;;;;;;1999.90;999.90;;;;;;;12.31;100.00;94431.22;5114615;28;20263;-62
2022/10/26 04:26:04;;;;;;;1999.90;999.90;;;;;;;12.35;100.00;94431.88;5114583;28;20220;-62
2022/10/26 04:28:29;;;;;;;1999.90;999.90;;;;;;;12.38;100.00;94428.25;5114005;28;20182;-62
2022/10/26 04:30:54;;;;;;;1999.90;999.90;;;;;;;12.37;100.00;94424.00;5114811;28;20175;-61
2022/10/26 04:33:20;;;;;;;1999.90;999.90;;;;;;;12.40;100.00;94428.59;5114541;28;20223;-61
2022/10/26 04:35:46;;;;;;;1999.90;999.90;;;;;;;12.41;100.00;94430.13;5115289;28;20225;-62
2022/10/26 04:38:12;;;;;;;1999.90;999.90;;;;;;;12.44;100.00;94429.25;5114731;28;20178;-60
2022/10/26 04:40:37;;;;;;;1999.90;999.90;;;;;;;12.46;100.00;94416.66;5115227;28;20181;-59
2022/10/26 04:43:03;;;;;;;1999.90;999.90;;;;;;;12.45;100.00;94415.13;5114529;28;20203;-59
2022/10/26 04:45:29;;;;;;;1999.90;999.90;;;;;;;12.45;100.00;94412.38;5115181;28;20183;-59
2022/10/26 04:48:02;;;;;;;1999.90;999.90;;;;;;;12.48;100.00;94418.94;5114213;28;20183;-59
2022/10/26 04:50:27;;;;;;;1999.90;999.90;;;;;;;12.48;100.00;94413.47;5115129;28;20231;-60
2022/10/26 04:52:53;;;;;;;1999.90;999.90;;;;;;;12.52;100.00;94416.84;5114251;28;20170;-59
2022/10/26 04:55:18;;;;;;;1999.90;999.90;;;;;;;12.54;100.00;94433.63;5114011;28;20178;-60
2022/10/26 04:57:44;;;;;;;1999.90;999.90;;;;;;;12.58;100.00;94450.72;5114254;28;20273;-59
2022/10/26 05:00:10;;;;;;;1999.90;999.90;;;;;;;12.59;100.00;94471.41;5114002;28;20174;-60
2022/10/26 05:02:35;;;;;;;1999.90;999.90;;;;;;;12.55;100.00;94484.47;5114124;28;20189;-59
2022/10/26 05:05:00;;;;;;;1999.90;999.90;;;;;;;12.54;100.00;94496.63;5114588;28;20246;-59
2022/10/26 05:07:26;;;;;;;1999.90;999.90;;;;;;;12.55;100.00;94506.38;5114716;28;20179;-60
2022/10/26 05:09:51;;;;;;;1999.90;999.90;;;;;;;12.55;100.00;94522.78;5114285;28;20193;-59
2022/10/26 05:12:16;;;;;;;1999.90;999.90;;;;;;;12.57;100.00;94542.31;5114660;28;20208;-63
2022/10/26 05:14:42;;;;;;;1999.90;999.90;;;;;;;12.57;100.00;94547.78;5114150;28;20178;-64
2022/10/26 05:17:07;;;;;;;1999.90;999.90;;;;;;;12.57;100.00;94547.78;5113724;28;20168;-63
2022/10/26 05:19:32;;;;;;;1999.90;999.90;;;;;;;12.58;100.00;94552.06;5114498;28;20175;-64
2022/10/26 05:21:58;;;;;;;1999.90;999.90;;;;;;;12.60;100.00;94539.47;5114097;28;20217;-64
2022/10/26 05:24:23;;;;;;;1999.90;999.90;;;;;;;12.61;100.00;94532.03;5113289;28;20262;-64
2022/10/26 05:26:49;;;;;;;1999.90;999.90;;;;;;;12.63;100.00;94507.69;5113880;28;20185;-65
2022/10/26 05:29:14;;;;;;;1999.90;999.90;;;;;;;12.64;100.00;94506.50;5114208;28;20175;-60
2022/10/26 05:31:39;;;;;;;1999.90;999.90;;;;;;;12.67;100.00;94492.69;5113943;28;20179;-60
2022/10/26 05:34:05;;;;;;;1999.90;999.90;;;;;;;12.67;100.00;94487.19;5114010;28;20174;-68
2022/10/26 05:36:30;;;;;;;1999.90;999.90;;;;;;;12.70;100.00;94485.56;5113524;28;20180;-68
2022/10/26 05:38:59;;;;;;;1999.90;999.90;;;;;;;12.71;100.00;94478.84;5114070;28;20179;-68
2022/10/26 05:41:25;;;;;;;1999.90;999.90;;;;;;;12.74;100.00;94497.16;5118042;28;20172;-68
2022/10/26 05:43:50;;;;;;;1999.90;999.90;;;;;;;12.74;100.00;94505.38;5117944;28;20209;-68
2022/10/26 05:46:15;;;;;;;1999.90;999.90;;;;;;;12.76;100.00;94501.00;5117703;28;20181;-68
2022/10/26 05:48:41;;;;;;;1999.90;999.90;;;;;;;12.79;100.00;94493.91;5117973;28;20270;-64
2022/10/26 05:51:06;;;;;;;1999.90;999.90;;;;;;;12.80;100.00;94485.25;5117965;28;20174;-70
2022/10/26 05:53:32;;;;;;;1999.90;999.90;;;;;;;12.81;100.00;94473.06;5117967;28;20194;-68
2022/10/26 05:55:58;;;;;;;1999.90;999.90;;;;;;;12.81;100.00;94480.50;5117872;28;20254;-69
2022/10/26 05:58:23;;;;;;;1999.90;999.90;;;;;;;12.82;100.00;94406.09;5117679;28;20170;-68
2022/10/26 06:01:06;;;;;;;1999.90;999.90;;;;;;;12.85;100.00;94394.25;5117677;28;20225;-68
2022/10/26 06:03:57;;;;;;;1999.90;999.90;;;;;;;12.87;100.00;94385.59;5117944;28;20204;-68
2022/10/26 06:06:23;;;;;;;1999.90;999.90;;;;;;;12.88;100.00;94376.16;5118021;28;20184;-60
2022/10/26 06:08:48;;;;;;;1999.90;999.90;;;;;;;12.91;100.00;94376.06;5117663;28;20225;-62
2022/10/26 06:11:14;;;;;;;1999.90;999.90;;;;;;;12.95;100.00;94364.97;5117332;28;20178;-64
2022/10/26 06:13:40;;;;;;;1999.90;999.90;;;;;;;12.98;100.00;94356.66;5117435;28;20183;-63
2022/10/26 06:16:28;;;;;;;1999.90;999.90;;;;;;;13.04;100.00;94346.66;5117355;28;20170;-63
2022/10/26 06:19:22;;;;;;;1999.90;999.90;;;;;;;13.06;100.00;94343.47;5117039;28;20179;-65
2022/10/26 06:22:11;;;;;;;1999.90;999.90;;;;;;;13.10;100.00;94335.88;5116988;28;20183;-63
2022/10/26 06:25:08;;;;;;;1999.90;999.90;;;;;;;13.13;100.00;94332.25;5117239;28;20210;-59
2022/10/26 06:27:55;;;;;;;1999.90;999.90;;;;;;;13.15;100.00;94329.84;5117385;28;20178;-69
2022/10/26 06:30:22;;;;;;;1999.90;999.90;;;;;;;13.13;100.00;94326.78;5116729;28;20170;-69
2022/10/26 06:32:49;;;;;;;1999.90;999.90;;;;;;;13.12;100.00;94331.47;5116633;28;20177;-67
2022/10/26 06:35:39;;;;;;;1999.90;999.90;;;;;;;13.15;100.00;94346.28;5117074;28;20175;-68
2022/10/26 06:38:16;;;;;;;1999.90;999.90;;;;;;;13.16;100.00;94342.34;5117040;28;20316;-68
2022/10/26 06:40:45;;;;;;;1999.90;999.90;;;;;;;13.21;100.00;94347.25;5117067;28;20170;-69
2022/10/26 06:43:26;;;;;;;1999.90;999.90;;;;;;;13.26;100.00;94346.69;5117007;28;20211;-71
2022/10/26 06:46:15;;;;;;;1999.90;999.90;;;;;;;13.27;100.00;94337.25;5116597;28;20226;-70
2022/10/26 06:48:59;;;;;;;1999.90;999.90;;;;;;;13.30;100.00;94317.16;5116492;28;20178;-69
2022/10/26 06:51:26;;;;;;;1999.90;999.90;;;;;;;13.31;100.00;94315.94;5116386;28;20174;-69
2022/10/26 06:54:16;;;;;;;1999.90;999.90;;;;;;;13.32;100.00;94322.94;5116557;28;20198;-69
2022/10/26 06:56:43;;;;;;;1999.90;999.90;;;;;;;13.40;100.00;94321.47;5117053;28;20170;-68
2022/10/26 06:59:18;;;;;;;1999.90;999.90;;;;;;;13.39;100.00;94328.19;5116378;28;20172;-68
2022/10/26 07:01:43;;;;;;;1999.90;999.90;;;;;;;13.45;100.00;94331.88;5116953;28;20177;-58
2022/10/26 07:04:09;;;;;;;1999.90;999.90;;;;;;;13.55;100.00;94340.94;5116208;28;20216;-59
2022/10/26 07:06:34;;;;;;;1999.90;999.90;;;;;;;13.57;100.00;94352.22;5116267;28;20176;-59
2022/10/26 07:08:59;;;;;;;1999.90;999.90;;;;;;;13.64;100.00;94382.91;5116251;28;20182;-58
2022/10/26 07:11:25;;;;;;;1999.90;999.90;;;;;;;13.64;100.00;94443.28;5116568;28;20171;-58
2022/10/26 07:13:50;;;;;;;1999.90;999.90;;;;;;;13.70;100.00;94523.81;5116205;28;20178;-58
2022/10/26 07:16:16;;;;;;;1999.90;999.90;;;;;;;13.77;100.00;94575.69;5116296;28;20265;-58
2022/10/26 07:18:41;;;;;;;1999.90;999.90;;;;;;;13.81;100.00;94650.47;5116192;28;20183;-58
2022/10/26 07:21:06;;;;;;;1999.90;999.90;;;;;;;13.83;100.00;94686.44;5116574;28;20193;-58
2022/10/26 07:23:32;;;;;;;1999.90;999.90;;;;;;;13.86;100.00;94728.72;5116228;28;20276;-60
2022/10/26 07:26:00;;;;;;;1999.90;999.90;;;;;;;13.89;100.00;94772.53;5116856;28;20179;-59
2022/10/26 07:28:25;;;;;;;1999.90;999.90;;;;;;;13.93;100.00;94800.63;5115736;28;20172;-59
2022/10/26 07:30:51;;;;;;;1999.90;999.90;;;;;;;13.98;100.00;94829.53;5115701;28;20182;-60
2022/10/26 07:33:16;;;;;;;1999.90;999.90;;;;;;;13.99;100.00;94840.03;5115958;28;20197;-58
2022/10/26 07:35:42;;;;;;;1999.90;999.90;;;;;;;14.05;100.00;94864.97;5116165;28;20183;-59
2022/10/26 07:38:07;;;;;;;1999.90;999.90;;;;;;;13.91;100.00;94868.94;5116150;28;20177;-61
2022/10/26 07:40:33;;;;;;;1999.90;999.90;;;;;;;13.96;100.00;94860.16;5116516;28;20204;-56
2022/10/26 07:42:59;;;;;;;1999.90;999.90;;;;;;;13.90;100.00;94855.63;5116304;28;20248;-59
2022/10/26 07:45:26;;;;;;;1999.90;999.90;;;;;;;13.95;100.00;94847.63;5116856;28;20190;-59
2022/10/26 07:47:52;;;;;;;1999.90;999.90;;;;;;;13.93;100.00;94852.78;5115483;28;20172;-60
2022/10/26 07:50:17;;;;;;;1999.90;999.90;;;;;;;13.95;100.00;94853.13;5115784;28;20177;-59
2022/10/26 07:52:42;;;;;;;1999.90;999.90;;;;;;;13.95;100.00;94872.34;5115606;28;20260;-59
2022/10/26 07:55:09;;;;;;;1999.90;999.90;;;;;;;13.95;100.00;94883.31;5116149;28;20200;-59
2022/10/26 07:57:35;;;;;;;1999.90;999.90;;;;;;;14.05;100.00;94882.25;5115988;28;20172;-59
2022/10/26 08:00:01;;;;;;;1999.90;999.90;;;;;;;14.10;100.00;94900.16;5115649;28;20175;-57
2022/10/26 08:02:26;;;;;;;1999.90;999.90;;;;;;;14.31;100.00;94905.78;5114668;28;20178;-58
2022/10/26 08:04:51;;;;;;;1999.90;999.90;;;;;;;14.34;100.00;94918.66;5114728;28;20298;-59
2022/10/26 08:07:17;;;;;;;1999.90;999.90;;;;;;;14.40;100.00;94944.38;5115710;28;20175;-58
2022/10/26 08:09:42;;;;;;;1999.90;999.90;;;;;;;14.41;100.00;94956.91;5115675;28;20172;-58
2022/10/26 08:12:08;;;;;;;1999.90;999.90;;;;;;;14.45;100.00;94962.28;5115207;28;20176;-57
2022/10/26 08:14:33;;;;;;;1999.90;999.90;;;;;;;14.53;100.00;94980.88;5115138;28;20175;-68
2022/10/26 08:16:58;;;;;;;1999.90;999.90;;;;;;;14.55;100.00;95008.69;5115485;28;20168;-57
2022/10/26 08:19:24;;;;;;;1999.90;999.90;;;;;;;14.62;100.00;95049.72;5115406;28;20221;-61
2022/10/26 08:21:49;;;;;;;1999.90;999.90;;;;;;;14.83;100.00;95059.31;5115093;28;20224;-62
2022/10/26 08:24:14;;;;;;;1999.90;999.90;;;;;;;14.93;100.00;95075.47;5115187;28;20230;-60
2022/10/26 08:26:40;;;;;;;1999.90;999.90;;;;;;;15.05;100.00;95118.72;5114993;28;20168;-62
2022/10/26 08:29:06;;;;;;;1999.90;999.90;;;;;;;15.27;100.00;95136.13;5115064;28;20336;-60
2022/10/26 08:31:31;;;;;;;1999.90;999.90;;;;;;;15.68;100.00;95152.56;5115235;28;20195;-63
2022/10/26 08:33:57;;;;;;;1999.90;999.90;;;;;;;16.59;100.00;95192.06;5114967;28;20182;-69
2022/10/26 08:36:24;;;;;;;1999.90;999.90;;;;;;;17.84;100.00;95307.41;5114756;28;20176;-72
2022/10/26 08:38:51;;;;;;;1999.90;999.90;;;;;;;19.02;100.00;95422.91;5115808;28;20199;-68
2022/10/26 08:41:19;;;;;;;1999.90;999.90;;;;;;;19.89;100.00;95506.38;5114554;28;20247;-70
2022/10/26 08:43:55;;;;;;;1999.90;999.90;;;;;;;20.03;100.00;95555.69;5114474;28;20286;-69
2022/10/26 08:46:31;;;;;;;1999.90;999.90;;;;;;;20.18;100.00;95571.28;5115337;28;20617;-69
2022/10/26 08:49:07;;;;;;;1999.90;999.90;;;;;;;19.76;100.00;95586.91;5115014;28;20176;-68
2022/10/26 08:51:38;;;;;;;1999.90;999.90;;;;;;;19.13;100.00;95583.84;5114244;28;20214;-63
2022/10/26 08:54:20;;;;;;;1999.90;999.90;;;;;;;18.78;100.00;95568.56;5114219;28;20176;-62
2022/10/26 08:56:51;;;;;;;1999.90;999.90;;;;;;;19.07;100.00;95583.69;5115404;28;20178;-68
2022/10/26 08:59:25;;;;;;;1999.90;999.90;;;;;;;20.36;100.00;95581.66;5114580;28;20214;-69
2022/10/26 09:01:51;;;;;;;1999.90;999.90;;;;;;;21.32;100.00;95601.91;5115205;28;20205;-68
2022/10/26 09:04:21;;;;;;;1999.90;999.90;;;;;;;21.28;100.00;95610.44;5114175;28;20219;-69
2022/10/26 09:06:53;;;;;;;1999.90;999.90;;;;;;;21.72;100.00;95617.09;5114802;28;20205;-69
2022/10/26 09:09:37;;;;;;;1999.90;999.90;;;;;;;21.98;100.00;95623.78;5114173;28;20211;-70
2022/10/26 09:12:23;;;;;;;1999.90;999.90;;;;;;;22.43;100.00;95623.50;5114834;28;20180;-71
2022/10/26 09:15:04;;;;;;;1999.90;999.90;;;;;;;23.55;100.00;95629.97;5113853;28;20233;-68
2022/10/26 09:17:45;;;;;;;1999.90;999.90;;;;;;;24.24;100.00;95635.63;5114848;28;20254;-68
2022/10/26 09:20:48;;;;;;;1999.90;999.90;;;;;;;23.96;100.00;95631.69;5113849;28;20191;-68
2022/10/26 09:23:30;;;;;;;1999.90;999.90;;;;;;;24.48;100.00;95633.44;5113767;28;20223;-68
2022/10/26 09:26:01;;;;;;;1999.90;999.90;;;;;;;24.91;100.00;95626.91;5097067;28;20261;-68
2022/10/26 09:28:35;;;;;;;1999.90;999.90;;;;;;;24.93;100.00;95641.13;5114521;28;20175;-58
2022/10/26 09:31:02;;;;;;;1999.90;999.90;;;;;;;24.87;100.00;95648.69;5114815;28;20172;-59
2022/10/26 09:33:30;;;;;;;1999.90;999.90;;;;;;;25.36;100.00;95642.91;5114174;28;20176;-62
2022/10/26 09:36:01;;;;;;;1999.90;999.90;;;;;;;26.08;100.00;95632.34;5114156;28;20164;-62
2022/10/26 09:38:32;;;;;;;1999.90;999.90;;;;;;;26.69;100.00;95639.88;5113989;28;20166;-62
2022/10/26 09:41:09;;;;;;;1999.90;999.90;;;;;;;26.26;100.00;95632.72;5114002;28;20172;-62
2022/10/26 09:43:43;;;;;;;1999.90;999.90;;;;;;;25.80;100.00;95648.91;5114744;28;20192;-63
2022/10/26 09:46:34;;;;;;;1999.90;999.90;;;;;;;25.17;100.00;95644.47;5114528;28;20160;-62
2022/10/26 09:49:09;;;;;;;1999.90;999.90;;;;;;;25.10;100.00;95656.06;5114283;28;20172;-68
2022/10/26 09:51:38;;;;;;;1999.90;999.90;;;;;;;24.50;100.00;95670.00;5114386;28;20160;-62
2022/10/26 09:54:14;;;;;;;1999.90;999.90;;;;;;;24.46;100.00;95663.88;5113625;28;20267;-63
2022/10/26 09:56:42;;;;;;;1999.90;999.90;;;;;;;25.32;100.00;95670.34;5114236;28;20159;-63
2022/10/26 09:59:10;;;;;;;1999.90;999.90;;;;;;;25.31;100.00;95677.16;5113787;28;20176;-63
2022/10/26 10:01:36;;;;;;;1999.90;999.90;;;;;;;24.51;100.00;95679.97;5113414;28;20251;-63
2022/10/26 10:04:21;;;;;;;1999.90;999.90;;;;;;;23.66;100.00;95688.72;5113594;28;20207;-63
2022/10/26 10:06:48;;;;;;;1999.90;999.90;;;;;;;23.27;100.00;95681.69;5114124;28;20164;-60
2022/10/26 10:09:16;;;;;;;1999.90;999.90;;;;;;;23.28;100.00;95683.22;5113675;28;20168;-62
2022/10/26 10:11:56;;;;;;;1999.90;999.90;;;;;;;23.02;100.00;95684.97;5113977;28;20199;-61
2022/10/26 10:14:39;;;;;;;1999.90;999.90;;;;;;;22.83;100.00;95694.72;5113576;28;20227;-62
2022/10/26 10:17:14;;;;;;;1999.90;999.90;;;;;;;22.28;100.00;95692.25;5113573;28;20215;-62
2022/10/26 10:19:39;;;;;;;1999.90;999.90;;;;;;;22.15;100.00;95693.72;5114075;28;20170;-62
2022/10/26 10:22:21;;;;;;;1999.90;999.90;;;;;;;21.75;100.00;95688.44;5113763;28;20168;-62
2022/10/26 10:24:58;;;;;;;1999.90;999.90;;;;;;;21.57;100.00;95693.28;5114107;28;20218;-60
2022/10/26 10:27:24;;;;;;;1999.90;999.90;;;;;;;21.47;100.00;95688.97;5116665;28;20225;-70
2022/10/26 10:29:52;;;;;;;1999.90;999.90;;;;;;;21.42;100.00;95692.38;5117245;28;20205;-70
2022/10/26 10:32:20;;;;;;;1999.90;999.90;;;;;;;21.62;100.00;95685.06;5117824;28;20176;-69
2022/10/26 10:34:51;;;;;;;1999.90;999.90;;;;;;;22.04;100.00;95699.00;5117175;28;20199;-68
2022/10/26 10:37:24;;;;;;;1999.90;999.90;;;;;;;22.37;100.00;95688.66;5117919;28;20168;-69
2022/10/26 10:39:54;;;;;;;1999.90;999.90;;;;;;;22.72;100.00;95698.03;5117524;28;20172;-68
2022/10/26 10:42:22;;;;;;;1999.90;999.90;;;;;;;22.36;100.00;95699.00;5116999;28;20176;-61
2022/10/26 10:44:52;;;;;;;1999.90;999.90;;;;;;;22.12;100.00;95706.56;5117551;28;20200;-61
2022/10/26 10:47:24;;;;;;;1999.90;999.90;;;;;;;22.23;100.00;95701.25;5117542;28;20175;-59
2022/10/26 10:50:14;;;;;;;1999.90;999.90;;;;;;;22.09;100.00;95690.81;5117539;28;20172;-59
2022/10/26 10:52:41;;;;;;;1999.90;999.90;;;;;;;21.93;100.00;95693.94;5116845;28;20206;-58
2022/10/26 10:55:13;;;;;;;1999.90;999.90;;;;;;;21.87;100.00;95704.19;5116741;28;20263;-58
2022/10/26 10:57:48;;;;;;;1999.90;999.90;;;;;;;21.76;100.00;95706.69;5117343;28;20172;-58
2022/10/26 11:00:15;;;;;;;1999.90;999.90;;;;;;;21.74;100.00;95697.25;5117265;28;20226;-57